Skip Navigation Links Skip Navigation Links

Current Weather

Aeroflex-Andover, Andover, N.J.

For information only: do not use for flight planning or navigation.
Latest weather
Observation time Wednesday, August 12, 2020 12:54 PM EDT
Local time Wednesday, August 12, 2020 1:58 PM EDT
Flight conditions Conditions unknown
Winds
Wind speed calm
Sky condition
Ceiling unlimited
Temperature 88°F
Dewpoint 70°F
Altimeter 30.05 in.Hg
Derived measurements
Relative humidity 55%
Heat index 93°F
Density altitude 2616 ft.
Sea-level pressure 30.02 in.Hg
Remarks
Fully automated report.
Automated weather observing station without precipitation discriminator.
METAR K12N 121654Z AUTO 00000KT 31/21 A3005 RMK AO1 SLP165 T03110211

Settings

Location code

InnerDrive.Weather 4.0.6770.0 Release CLR 4.0.30319.42000
Copyright ©2018 Inner Drive Technology. All rights reserved. Portions Copyright ©1986-2018 David Braverman.

Find weather

Site navigation


Skip Navigation Links

Place info

Page info

PayPal - The safer, easier way to pay online!

Return home.

Copyright ©2020 Inner Drive Technology. Purveyors of fine, hand-crafted computer software. Page printed 2020-08-12T17:58:21 UTC.